Time;durP1;ratioP1;P1;durP2;ratioP2;P2;SDS_P1;SDS_P2;PMS_P1;PMS_P2;Temp;Humidity;BMP_temperature;BMP_pressure;BME280_temperature;BME280_humidity;BME280_pressure;Samples;Min_cycle;Max_cycle;Signal;HPM_P1;HPM_P2
2021/12/19 00:02:26;;;;;;;33.70;18.47;;;;;;;3.28;100.00;99896.44;5116321;27;20215;-63
2021/12/19 00:10:22;;;;;;;36.17;18.00;;;;;;;3.17;100.00;99890.47;5109369;28;20781;-64
2021/12/19 00:12:48;;;;;;;35.20;18.33;;;;;;;3.13;100.00;99896.59;5114372;28;20221;-64
2021/12/19 00:15:15;;;;;;;36.57;16.97;;;;;;;3.13;100.00;99891.38;5115616;28;20232;-64
2021/12/19 00:17:41;;;;;;;35.27;18.37;;;;;;;3.16;100.00;99891.38;5116001;28;20218;-64
2021/12/19 00:20:10;;;;;;;30.37;16.00;;;;;;;3.16;100.00;99880.91;5108741;28;20241;-63
2021/12/19 00:22:37;;;;;;;33.33;16.47;;;;;;;3.20;100.00;99877.38;5115866;28;20242;-63
2021/12/19 00:25:04;;;;;;;32.50;17.13;;;;;;;3.23;100.00;99871.22;5116001;28;20219;-63
2021/12/19 00:27:30;;;;;;;32.47;16.43;;;;;;;3.23;100.00;99856.44;5115945;28;20206;-64
2021/12/19 00:29:57;;;;;;;34.93;17.87;;;;;;;3.21;100.00;99863.44;5108471;28;20593;-63
2021/12/19 00:32:23;;;;;;;34.20;16.83;;;;;;;3.26;100.00;99860.75;5115454;28;20687;-63
2021/12/19 00:34:51;;;;;;;38.37;18.47;;;;;;;3.23;100.00;99851.19;5115649;28;20214;-64
2021/12/19 00:37:19;;;;;;;37.63;18.23;;;;;;;3.21;100.00;99842.53;5115222;28;20734;-64
2021/12/19 00:39:46;;;;;;;38.20;19.00;;;;;;;3.24;100.00;99841.63;5113855;28;20222;-64
2021/12/19 00:42:14;;;;;;;36.20;18.53;;;;;;;3.20;100.00;99846.03;5115525;28;20218;-64
2021/12/19 00:44:42;;;;;;;35.60;17.53;;;;;;;3.17;100.00;99850.44;5115251;28;20218;-64
2021/12/19 00:47:08;;;;;;;37.07;17.47;;;;;;;3.16;100.00;99831.28;5115145;28;20221;-64
2021/12/19 00:49:35;;;;;;;37.03;17.07;;;;;;;3.17;100.00;99827.78;5115299;28;20210;-63
2021/12/19 00:52:03;;;;;;;37.13;17.63;;;;;;;3.16;100.00;99827.78;5115042;28;20207;-64
2021/12/19 00:54:31;;;;;;;38.53;17.13;;;;;;;3.16;100.00;99839.09;5114927;28;20214;-63
2021/12/19 00:56:57;;;;;;;35.90;17.73;;;;;;;3.18;100.00;99821.66;5115108;28;20248;-63
2021/12/19 00:59:24;;;;;;;36.03;17.57;;;;;;;3.19;100.00;99828.59;5114798;28;20210;-64
2021/12/19 01:01:50;;;;;;;38.20;18.37;;;;;;;3.21;100.00;99831.19;5114849;28;20237;-64
2021/12/19 01:04:19;;;;;;;33.63;16.77;;;;;;;3.20;100.00;99825.13;5113094;27;20694;-63
2021/12/19 01:06:47;;;;;;;34.60;16.50;;;;;;;3.20;100.00;99830.38;5108735;27;20210;-63
2021/12/19 01:09:14;;;;;;;33.37;16.03;;;;;;;3.17;100.00;99835.59;5114925;28;20229;-63
2021/12/19 01:11:46;;;;;;;30.87;14.07;;;;;;;3.19;100.00;99831.22;5114717;28;20217;-63
2021/12/19 01:14:13;;;;;;;30.37;15.27;;;;;;;3.22;100.00;99830.31;5114948;28;20221;-64
2021/12/19 01:16:39;;;;;;;28.80;14.60;;;;;;;3.19;100.00;99823.38;5114499;28;20238;-64
2021/12/19 01:19:06;;;;;;;29.90;14.87;;;;;;;3.16;100.00;99828.66;5114497;28;20679;-64
2021/12/19 01:21:33;;;;;;;31.97;15.80;;;;;;;3.22;100.00;99817.25;5114282;28;20220;-64
2021/12/19 01:23:59;;;;;;;32.07;16.17;;;;;;;3.26;100.00;99819.81;5114691;28;20226;-64
2021/12/19 01:26:26;;;;;;;26.67;13.63;;;;;;;3.27;100.00;99821.56;5114807;28;20214;-64
2021/12/19 01:28:53;;;;;;;28.40;14.13;;;;;;;3.24;100.00;99825.97;5111901;28;20667;-64
2021/12/19 01:31:20;;;;;;;27.83;15.17;;;;;;;3.24;100.00;99815.50;5112907;28;20218;-64
2021/12/19 01:33:47;;;;;;;27.27;15.07;;;;;;;3.23;100.00;99822.47;5114616;28;20216;-63
2021/12/19 01:36:13;;;;;;;32.17;15.30;;;;;;;3.25;100.00;99823.31;5114403;27;20241;-64
2021/12/19 01:38:40;;;;;;;30.37;15.77;;;;;;;3.24;100.00;99825.97;5114098;28;20214;-63
2021/12/19 01:41:07;;;;;;;31.80;14.50;;;;;;;3.22;100.00;99835.53;5114437;28;20215;-63
2021/12/19 01:43:33;;;;;;;29.43;13.70;;;;;;;3.24;100.00;99839.88;5114274;28;20215;-64
2021/12/19 01:46:01;;;;;;;29.93;14.13;;;;;;;3.25;100.00;99828.53;5113949;28;20233;-64
2021/12/19 01:48:28;;;;;;;30.57;14.63;;;;;;;3.26;100.00;99830.28;5114181;28;20214;-64
2021/12/19 01:50:55;;;;;;;33.20;15.57;;;;;;;3.25;100.00;99828.53;5114191;27;20218;-64
2021/12/19 01:53:21;;;;;;;34.10;16.17;;;;;;;3.24;100.00;99837.25;5113747;28;20218;-64
2021/12/19 01:55:49;;;;;;;30.70;15.10;;;;;;;3.24;100.00;99832.03;5112547;28;20575;-63
2021/12/19 01:58:17;;;;;;;32.63;15.47;;;;;;;3.25;100.00;99836.34;5113817;28;20205;-64
2021/12/19 02:00:46;;;;;;;32.37;16.53;;;;;;;3.25;100.00;99828.53;5113707;27;20217;-64
2021/12/19 02:03:14;;;;;;;31.90;15.90;;;;;;;3.24;100.00;99832.03;5113835;27;20206;-64
2021/12/19 02:05:41;;;;;;;32.27;15.20;;;;;;;3.25;100.00;99828.53;5118222;27;20591;-64
2021/12/19 02:08:10;;;;;;;31.73;16.03;;;;;;;3.25;100.00;99827.69;5113426;28;20587;-65
2021/12/19 02:10:38;;;;;;;31.37;15.83;;;;;;;3.25;100.00;99820.69;5117976;27;20218;-64
2021/12/19 02:13:07;;;;;;;32.43;16.57;;;;;;;3.28;100.00;99827.63;5104697;28;20584;-64
2021/12/19 02:15:35;;;;;;;34.30;16.43;;;;;;;3.27;100.00;99821.56;5114127;28;20222;-64
2021/12/19 02:18:04;;;;;;;35.60;16.57;;;;;;;3.25;100.00;99815.47;5113782;28;20257;-64
2021/12/19 02:20:34;;;;;;;32.20;16.37;;;;;;;3.21;100.00;99808.56;5113744;28;20210;-64
2021/12/19 02:23:01;;;;;;;32.47;16.63;;;;;;;3.22;100.00;99798.97;5111789;28;20238;-63
2021/12/19 02:25:28;;;;;;;33.43;16.27;;;;;;;3.23;100.00;99798.94;5113464;28;20350;-63
2021/12/19 02:27:56;;;;;;;37.57;17.63;;;;;;;3.24;100.00;99795.44;5113501;28;20301;-63
2021/12/19 02:30:22;;;;;;;39.47;17.80;;;;;;;3.21;100.00;99794.63;5113239;28;20210;-64
2021/12/19 02:32:49;;;;;;;37.83;17.73;;;;;;;3.19;100.00;99789.41;5113581;28;20221;-64
2021/12/19 02:35:20;;;;;;;34.77;17.07;;;;;;;3.16;100.00;99792.09;5113254;28;20222;-63
2021/12/19 02:48:08;;;;;;;34.33;17.17;;;;;;;3.13;100.00;99793.88;5104082;27;20610;-64
2021/12/19 02:48:50;;;;;;;34.17;16.57;;;;;;;3.18;100.00;99782.47;5111598;28;20634;-63
2021/12/19 02:51:17;;;;;;;36.97;18.57;;;;;;;3.19;100.00;99771.13;5113421;28;20214;-64
2021/12/19 02:53:45;;;;;;;36.57;17.27;;;;;;;3.16;100.00;99779.03;5113367;28;20220;-63
2021/12/19 02:56:13;;;;;;;35.03;16.60;;;;;;;3.16;100.00;99784.25;5113189;28;20214;-64
2021/12/19 02:58:42;;;;;;;32.03;15.47;;;;;;;3.13;100.00;99786.88;5112952;28;20221;-64
2021/12/19 03:01:11;;;;;;;27.33;13.20;;;;;;;3.16;100.00;99781.63;5112940;28;20214;-64
2021/12/19 03:03:38;;;;;;;28.30;12.57;;;;;;;3.19;100.00;99776.34;5113264;28;20217;-64
2021/12/19 03:06:06;;;;;;;21.77;11.23;;;;;;;3.16;100.00;99776.41;5112979;28;20206;-64
2021/12/19 03:08:33;;;;;;;20.10;10.67;;;;;;;3.17;100.00;99778.13;5106106;28;20561;-64
2021/12/19 03:11:41;;;;;;;24.03;12.43;;;;;;;3.17;100.00;99765.06;5113353;28;20292;-63
2021/12/19 03:19:34;;;;;;;28.60;12.60;;;;;;;3.16;100.00;99758.13;5116868;28;20273;-64
2021/12/19 03:22:01;;;;;;;26.23;11.87;;;;;;;3.14;100.00;99757.28;5116908;28;20241;-64
2021/12/19 03:24:27;;;;;;;27.87;13.60;;;;;;;3.12;100.00;99753.81;5117097;28;20216;-64
2021/12/19 03:26:55;;;;;;;27.43;13.73;;;;;;;3.13;100.00;99760.75;5117119;27;20210;-64
2021/12/19 03:29:22;;;;;;;28.27;14.33;;;;;;;3.10;100.00;99752.97;5116890;28;20218;-64
2021/12/19 03:31:48;;;;;;;23.73;11.07;;;;;;;3.09;100.00;99753.88;5116605;28;20296;-64
2021/12/19 03:34:15;;;;;;;18.70;10.10;;;;;;;3.06;100.00;99748.69;5116721;28;20580;-64
2021/12/19 03:36:41;;;;;;;24.43;10.73;;;;;;;3.07;100.00;99752.16;5116775;28;20596;-63
2021/12/19 03:39:14;;;;;;;22.40;11.60;;;;;;;3.05;100.00;99749.56;5116898;28;20214;-64
2021/12/19 03:41:41;;;;;;;23.03;10.87;;;;;;;3.06;100.00;99747.84;5106351;28;20306;-63
2021/12/19 03:44:09;;;;;;;24.73;13.17;;;;;;;3.03;100.00;99733.06;5116801;28;20233;-63
2021/12/19 03:46:36;;;;;;;24.83;12.70;;;;;;;3.02;100.00;99736.56;5116383;28;20611;-63
2021/12/19 03:49:02;;;;;;;21.13;11.07;;;;;;;2.99;100.00;99735.75;5116604;28;20263;-63
2021/12/19 03:51:29;;;;;;;22.40;11.73;;;;;;;2.97;100.00;99733.16;5116411;28;20217;-64
2021/12/19 03:53:55;;;;;;;22.70;12.33;;;;;;;3.00;100.00;99732.25;5116649;27;20214;-63
2021/12/19 03:56:22;;;;;;;24.07;11.17;;;;;;;3.05;100.00;99740.88;5116096;28;20288;-63
2021/12/19 03:58:48;;;;;;;24.53;12.03;;;;;;;3.03;100.00;99730.44;5116316;28;20209;-63
2021/12/19 04:01:16;;;;;;;26.20;12.80;;;;;;;2.95;100.00;99734.91;5106809;28;20284;-63
2021/12/19 04:03:45;;;;;;;23.73;12.43;;;;;;;2.98;100.00;99729.66;5116181;28;20214;-63
2021/12/19 04:06:11;;;;;;;25.43;12.37;;;;;;;3.04;100.00;99726.94;5113197;28;20659;-64
2021/12/19 04:08:38;;;;;;;26.30;13.07;;;;;;;3.06;100.00;99727.78;5112281;28;20210;-64
2021/12/19 04:11:05;;;;;;;25.97;12.70;;;;;;;3.07;100.00;99721.66;5107029;28;20573;-63
2021/12/19 04:13:31;;;;;;;24.53;12.50;;;;;;;3.09;100.00;99717.31;5116270;28;20232;-64
2021/12/19 04:15:58;;;;;;;26.80;12.17;;;;;;;3.08;100.00;99715.59;5115965;28;20210;-64
2021/12/19 04:18:25;;;;;;;25.80;12.43;;;;;;;3.04;100.00;99711.28;5115817;28;20237;-64
2021/12/19 04:20:52;;;;;;;25.70;12.43;;;;;;;3.05;100.00;99702.53;5115887;28;20221;-64
2021/12/19 04:23:18;;;;;;;22.37;11.77;;;;;;;3.05;100.00;99694.72;5115655;28;20245;-63
2021/12/19 04:25:45;;;;;;;22.03;11.67;;;;;;;3.06;100.00;99691.22;5115888;27;20217;-63
2021/12/19 04:28:13;;;;;;;18.17;9.47;;;;;;;3.05;100.00;99688.66;5114856;28;20218;-64
2021/12/19 04:30:40;;;;;;;20.87;10.93;;;;;;;3.03;100.00;99690.41;5115638;28;20632;-64
2021/12/19 04:33:09;;;;;;;22.37;10.67;;;;;;;3.00;100.00;99685.22;5114087;28;20222;-63
2021/12/19 04:35:39;;;;;;;22.20;11.97;;;;;;;3.00;100.00;99686.06;5115414;27;20703;-63
2021/12/19 04:41:11;;;;;;;20.73;9.70;;;;;;;2.92;100.00;99687.94;5108851;28;20572;-63
2021/12/19 04:52:17;;;;;;;15.63;9.13;;;;;;;2.85;100.00;99701.97;5115200;28;20270;-63
2021/12/19 04:54:59;;;;;;;21.17;9.80;;;;;;;2.84;100.00;99704.59;5109298;28;20622;-64
2021/12/19 04:57:34;;;;;;;17.27;9.17;;;;;;;2.89;100.00;99698.41;5107968;28;20248;-64
2021/12/19 05:00:05;;;;;;;17.60;8.40;;;;;;;2.87;100.00;99704.56;5113554;28;20236;-63
2021/12/19 05:02:44;;;;;;;15.07;7.60;;;;;;;2.91;100.00;99708.84;5114941;28;20668;-63
2021/12/19 05:16:08;;;;;;;22.87;10.43;;;;;;;2.90;100.00;99700.19;5106633;28;20221;-64
2021/12/19 05:18:38;;;;;;;21.20;9.93;;;;;;;2.94;100.00;99701.84;5117808;27;20273;-63
2021/12/19 05:21:09;;;;;;;22.70;11.30;;;;;;;2.92;100.00;99695.78;5114559;27;20209;-63
2021/12/19 05:23:52;;;;;;;22.60;10.37;;;;;;;2.92;100.00;99695.78;5117434;27;20245;-64
2021/12/19 05:26:18;;;;;;;22.93;10.30;;;;;;;2.96;100.00;99689.63;5113296;28;20712;-63
2021/12/19 05:28:48;;;;;;;21.20;10.33;;;;;;;2.97;100.00;99688.75;5117360;27;20686;-64
2021/12/19 05:31:14;;;;;;;19.60;9.67;;;;;;;2.90;100.00;99689.72;5114240;27;20214;-64
2021/12/19 05:33:41;;;;;;;17.63;8.13;;;;;;;2.89;100.00;99698.41;5105541;28;20210;-63
2021/12/19 05:44:09;;;;;;;16.50;8.27;;;;;;;2.90;100.00;99684.50;5114250;28;20659;-63
2021/12/19 05:47:11;;;;;;;13.77;6.90;;;;;;;2.79;100.00;99686.41;5114007;28;20262;-63
2021/12/19 05:49:37;;;;;;;15.83;6.97;;;;;;;2.78;100.00;99674.22;5114057;28;20210;-64
2021/12/19 05:52:04;;;;;;;13.10;6.87;;;;;;;2.73;100.00;99676.03;5112559;28;20217;-64
2021/12/19 05:54:32;;;;;;;12.60;6.73;;;;;;;2.71;100.00;99680.44;5114124;28;20210;-64
2021/12/19 05:56:59;;;;;;;12.47;6.40;;;;;;;2.71;100.00;99670.00;5114062;28;20218;-63
2021/12/19 05:59:25;;;;;;;12.37;6.23;;;;;;;2.69;100.00;99668.28;5114098;27;20214;-63
2021/12/19 06:01:52;;;;;;;13.43;6.83;;;;;;;2.69;100.00;99669.13;5114053;27;20206;-64
2021/12/19 06:04:18;;;;;;;12.63;7.00;;;;;;;2.69;100.00;99669.13;5114000;28;20214;-64
2021/12/19 06:06:46;;;;;;;11.23;6.10;;;;;;;2.72;100.00;99668.22;5108864;28;20210;-64
2021/12/19 06:09:12;;;;;;;12.13;6.00;;;;;;;2.70;100.00;99655.19;5113881;28;20217;-63
2021/12/19 06:11:40;;;;;;;11.33;6.40;;;;;;;2.70;100.00;99655.19;5113857;28;20218;-63
2021/12/19 06:14:07;;;;;;;12.23;6.63;;;;;;;2.65;100.00;99650.91;5106747;28;20588;-64
2021/12/19 06:16:33;;;;;;;14.07;6.93;;;;;;;2.67;100.00;99650.00;5113594;28;20690;-63
2021/12/19 06:18:59;;;;;;;15.93;7.73;;;;;;;2.70;100.00;99643.91;5113368;28;20699;-64
2021/12/19 06:21:26;;;;;;;13.73;7.83;;;;;;;2.71;100.00;99635.16;5115409;27;20214;-64
2021/12/19 06:23:53;;;;;;;16.47;8.07;;;;;;;2.71;100.00;99641.28;5113619;28;20237;-63
2021/12/19 06:26:19;;;;;;;20.00;9.87;;;;;;;2.73;100.00;99642.09;5115471;27;20228;-63
2021/12/19 06:28:47;;;;;;;24.60;11.20;;;;;;;2.77;100.00;99624.63;5113540;28;20210;-63
2021/12/19 06:31:14;;;;;;;22.10;10.90;;;;;;;2.75;100.00;99626.41;5114330;28;20213;-63
2021/12/19 06:33:41;;;;;;;19.43;9.93;;;;;;;2.75;100.00;99632.47;5115366;28;20213;-63
2021/12/19 06:36:09;;;;;;;22.03;10.50;;;;;;;2.72;100.00;99636.88;5113454;28;20214;-63
2021/12/19 06:38:35;;;;;;;16.53;8.87;;;;;;;2.69;100.00;99627.34;5113382;28;20649;-63
2021/12/19 06:41:02;;;;;;;20.40;9.83;;;;;;;2.67;100.00;99629.13;5113533;28;20206;-63
2021/12/19 06:43:30;;;;;;;17.30;8.83;;;;;;;2.68;100.00;99617.81;5111990;28;20214;-63
2021/12/19 06:45:58;;;;;;;18.83;9.93;;;;;;;2.61;100.00;99618.78;5113442;28;20301;-63
2021/12/19 06:48:25;;;;;;;18.23;9.23;;;;;;;2.62;100.00;99624.84;5103979;28;20213;-63
2021/12/19 06:50:51;;;;;;;18.77;9.57;;;;;;;2.60;100.00;99626.63;5113173;28;20679;-63
2021/12/19 06:53:18;;;;;;;15.93;8.30;;;;;;;2.60;100.00;99631.84;5117259;28;20209;-63
2021/12/19 06:55:45;;;;;;;18.47;8.67;;;;;;;2.56;100.00;99635.41;5117743;28;20213;-63
2021/12/19 06:58:11;;;;;;;16.30;8.20;;;;;;;2.59;100.00;99624.91;5117449;28;20244;-63
2021/12/19 07:00:38;;;;;;;15.33;7.63;;;;;;;2.59;100.00;99631.00;5117271;28;20214;-64
2021/12/19 07:03:06;;;;;;;16.40;8.50;;;;;;;2.64;100.00;99633.53;5117453;28;20224;-63
2021/12/19 07:05:32;;;;;;;16.67;8.53;;;;;;;2.58;100.00;99634.47;5117559;27;20583;-63
2021/12/19 07:07:59;;;;;;;19.40;8.90;;;;;;;2.64;100.00;99637.00;5110213;28;20232;-63
2021/12/19 07:10:25;;;;;;;13.90;8.47;;;;;;;2.68;100.00;99641.28;5115889;27;20599;-63
2021/12/19 07:12:52;;;;;;;17.80;8.67;;;;;;;2.59;100.00;99633.59;5117559;28;20232;-63
2021/12/19 07:15:18;;;;;;;18.37;9.20;;;;;;;2.60;100.00;99632.72;5117291;28;20224;-63
2021/12/19 07:17:45;;;;;;;19.73;8.83;;;;;;;2.67;100.00;99633.47;5116882;28;20234;-63
2021/12/19 07:20:13;;;;;;;15.17;7.90;;;;;;;2.65;100.00;99633.53;5117232;28;20229;-64
2021/12/19 07:22:40;;;;;;;13.63;7.47;;;;;;;2.67;100.00;99634.34;5117117;28;20234;-63
2021/12/19 07:25:07;;;;;;;13.33;7.80;;;;;;;2.66;100.00;99636.97;5116709;28;20210;-63
2021/12/19 07:27:33;;;;;;;13.07;7.37;;;;;;;2.67;100.00;99634.34;5116744;27;20213;-64
2021/12/19 07:30:00;;;;;;;15.30;8.00;;;;;;;2.66;100.00;99627.41;5117048;28;20220;-63
2021/12/19 07:32:27;;;;;;;16.23;8.10;;;;;;;2.68;100.00;99628.25;5117013;28;20246;-63
2021/12/19 07:34:54;;;;;;;15.73;7.53;;;;;;;2.70;100.00;99634.28;5115081;28;20215;-63
2021/12/19 07:37:22;;;;;;;14.80;8.03;;;;;;;2.68;100.00;99630.84;5116814;28;20311;-63
2021/12/19 07:39:56;;;;;;;18.63;9.00;;;;;;;2.62;100.00;99636.16;5116698;28;20238;-63
2021/12/19 07:42:23;;;;;;;17.23;8.70;;;;;;;2.68;100.00;99629.97;5106057;28;20205;-63
2021/12/19 07:44:50;;;;;;;17.77;9.00;;;;;;;2.68;100.00;99633.47;5106023;28;20333;-64
2021/12/19 07:47:16;;;;;;;18.40;9.50;;;;;;;2.74;100.00;99635.09;5115380;28;20601;-64
2021/12/19 07:49:43;;;;;;;14.50;7.93;;;;;;;2.71;100.00;99636.06;5115285;27;20236;-63
2021/12/19 07:52:10;;;;;;;14.63;7.50;;;;;;;2.75;100.00;99629.88;5115453;28;20588;-63
2021/12/19 07:54:38;;;;;;;15.97;8.10;;;;;;;2.81;100.00;99628.94;5115301;28;20206;-63
2021/12/19 07:57:04;;;;;;;15.00;7.63;;;;;;;2.80;100.00;99624.59;5114994;28;20214;-64
2021/12/19 07:59:31;;;;;;;13.17;6.83;;;;;;;2.77;100.00;99629.88;5114821;28;20711;-64
2021/12/19 08:01:57;;;;;;;13.37;6.57;;;;;;;2.79;100.00;99623.75;5113519;28;20602;-63
2021/12/19 08:04:24;;;;;;;12.63;6.60;;;;;;;2.77;100.00;99624.63;5114047;28;20233;-64
2021/12/19 08:06:50;;;;;;;13.03;6.63;;;;;;;2.77;100.00;99622.91;5113132;28;20202;-63
2021/12/19 08:09:24;;;;;;;12.53;6.73;;;;;;;2.85;100.00;99605.38;5107521;28;20222;-63
2021/12/19 08:11:52;;;;;;;13.90;7.23;;;;;;;2.92;100.00;99593.94;5114942;28;20214;-64
2021/12/19 08:14:18;;;;;;;13.67;6.23;;;;;;;2.92;100.00;99595.69;5114708;28;20218;-63
2021/12/19 08:16:46;;;;;;;9.30;5.03;;;;;;;2.91;100.00;99592.22;5114919;28;20210;-64
2021/12/19 08:19:13;;;;;;;10.40;5.40;;;;;;;2.96;100.00;99600.84;5114775;28;20238;-63
2021/12/19 08:21:40;;;;;;;10.60;6.10;;;;;;;2.98;100.00;99593.84;5114622;28;20257;-64
2021/12/19 08:24:11;;;;;;;10.30;5.07;;;;;;;2.98;100.00;99604.28;5114708;27;20217;-64
2021/12/19 08:26:38;;;;;;;8.40;5.20;;;;;;;2.95;100.00;99606.94;5113383;28;20253;-63
2021/12/19 08:29:06;;;;;;;8.43;4.73;;;;;;;2.97;100.00;99607.78;5111113;28;20214;-63
2021/12/19 08:31:33;;;;;;;9.73;5.33;;;;;;;3.02;100.00;99611.19;5112049;28;20210;-64
2021/12/19 08:33:59;;;;;;;8.23;4.90;;;;;;;3.07;100.00;99598.91;5113202;28;20217;-63
2021/12/19 08:36:26;;;;;;;7.60;4.37;;;;;;;3.02;100.00;99599.88;5111923;28;20213;-63
2021/12/19 08:38:53;;;;;;;8.40;4.67;;;;;;;3.06;100.00;99602.41;5110452;28;20230;-63
2021/12/19 08:41:20;;;;;;;9.30;5.17;;;;;;;3.06;100.00;99591.97;5107566;28;20613;-63
2021/12/19 08:43:46;;;;;;;7.37;4.63;;;;;;;3.11;100.00;99590.13;5114023;28;20217;-64
2021/12/19 08:46:14;;;;;;;8.50;4.80;;;;;;;3.17;100.00;99590.03;5114236;28;20210;-63
2021/12/19 08:48:41;;;;;;;8.77;5.00;;;;;;;3.20;100.00;99590.00;5114109;28;20217;-63
2021/12/19 08:51:08;;;;;;;8.37;5.27;;;;;;;3.23;100.00;99583.84;5107655;28;20237;-63
2021/12/19 08:53:34;;;;;;;8.30;4.73;;;;;;;3.25;100.00;99588.16;5113812;28;20213;-63
2021/12/19 08:56:01;;;;;;;9.60;5.63;;;;;;;3.26;100.00;99584.66;5112442;28;20240;-63
2021/12/19 08:58:29;;;;;;;7.97;5.33;;;;;;;3.27;100.00;99586.38;5113870;28;20237;-63
2021/12/19 09:01:01;;;;;;;8.20;5.40;;;;;;;3.31;100.00;99577.59;5113570;28;20214;-63
2021/12/19 09:03:29;;;;;;;8.47;5.07;;;;;;;3.38;100.00;99588.81;5113919;28;20751;-63
2021/12/19 09:05:56;;;;;;;9.60;5.53;;;;;;;3.44;100.00;99578.25;5113395;28;20672;-63
2021/12/19 09:08:23;;;;;;;8.70;5.27;;;;;;;3.47;100.00;99573.81;5107307;28;20218;-63
2021/12/19 09:10:50;;;;;;;7.87;4.70;;;;;;;3.48;100.00;99580.78;5113650;28;20222;-64
2021/12/19 09:13:16;;;;;;;7.87;4.47;;;;;;;3.50;100.00;99588.59;5113431;28;20687;-64
2021/12/19 09:15:42;;;;;;;8.03;4.43;;;;;;;3.49;100.00;99590.31;5113418;28;20210;-63
2021/12/19 09:18:09;;;;;;;8.50;4.80;;;;;;;3.50;100.00;99585.97;5113375;28;20234;-63
2021/12/19 09:20:37;;;;;;;7.83;4.50;;;;;;;3.53;100.00;99589.41;5113682;28;20214;-63
2021/12/19 09:23:04;;;;;;;7.53;4.60;;;;;;;3.59;100.00;99591.91;5111972;28;20244;-63
2021/12/19 09:25:30;;;;;;;8.23;4.57;;;;;;;3.62;100.00;99583.97;5113451;28;20214;-63
2021/12/19 09:27:57;;;;;;;5.63;4.10;;;;;;;3.71;100.00;99581.22;5113344;28;20213;-63
2021/12/19 09:30:25;;;;;;;6.03;4.10;;;;;;;3.76;100.00;99566.31;5113202;28;20220;-63
2021/12/19 09:32:52;;;;;;;6.07;3.87;;;;;;;3.76;100.00;99571.53;5113303;28;20217;-63
2021/12/19 09:35:18;;;;;;;7.37;4.57;;;;;;;3.77;100.00;99573.25;5113214;28;20223;-64
2021/12/19 09:37:46;;;;;;;6.67;4.20;;;;;;;3.80;100.00;99573.19;5113138;28;20206;-63
2021/12/19 09:40:19;;;;;;;7.07;4.63;;;;;;;3.82;100.00;99565.31;5112809;28;20734;-63
2021/12/19 09:42:48;;;;;;;7.17;3.83;;;;;;;3.87;100.00;99560.84;5113250;28;20226;-63
2021/12/19 09:45:16;;;;;;;4.70;3.77;;;;;;;3.81;100.00;99559.22;5112748;28;20220;-63
2021/12/19 09:47:42;;;;;;;5.23;3.77;;;;;;;3.76;100.00;99563.69;5106332;28;20221;-63
2021/12/19 09:50:10;;;;;;;5.47;3.73;;;;;;;3.76;100.00;99561.06;5111075;27;20217;-63
2021/12/19 09:52:37;;;;;;;5.53;3.57;;;;;;;3.81;100.00;99559.22;5106993;28;20214;-63
2021/12/19 09:55:06;;;;;;;5.20;3.43;;;;;;;3.78;100.00;99548.81;5112726;28;20244;-63
2021/12/19 09:57:32;;;;;;;5.00;3.57;;;;;;;3.74;100.00;99547.16;5106368;28;20228;-63
2021/12/19 10:00:00;;;;;;;4.73;3.40;;;;;;;3.72;100.00;99542.88;5112610;28;20229;-63
2021/12/19 10:02:26;;;;;;;5.37;3.20;;;;;;;3.73;100.00;99531.50;5113041;28;20263;-63
2021/12/19 10:04:53;;;;;;;5.17;3.57;;;;;;;3.74;100.00;99536.69;5112546;28;20223;-63
2021/12/19 10:07:21;;;;;;;4.33;3.13;;;;;;;3.82;100.00;99545.25;5109162;28;20210;-63
2021/12/19 10:09:59;;;;;;;4.40;3.20;;;;;;;3.87;100.00;99537.31;5112917;28;20214;-64
2021/12/19 10:12:48;;;;;;;4.90;3.70;;;;;;;3.92;100.00;99541.53;5112545;28;20210;-64
2021/12/19 10:15:18;;;;;;;5.23;3.33;;;;;;;3.94;100.00;99526.69;5104160;28;20292;-64
2021/12/19 10:17:45;;;;;;;4.13;3.17;;;;;;;3.98;100.00;99520.50;5112277;28;20685;-63
2021/12/19 10:20:14;;;;;;;4.67;3.33;;;;;;;3.99;100.00;99524.88;5112129;28;20723;-63
2021/12/19 10:22:43;;;;;;;4.50;3.47;;;;;;;4.00;100.00;99520.47;5102742;28;20246;-64
2021/12/19 10:25:30;;;;;;;4.07;2.87;;;;;;;4.02;100.00;99516.06;5112151;28;20210;-63
2021/12/19 10:28:02;;;;;;;4.07;3.03;;;;;;;4.01;100.00;99512.59;5101863;28;20216;-63
2021/12/19 10:30:31;;;;;;;4.07;3.20;;;;;;;4.04;100.00;99509.91;5112024;28;20217;-64
2021/12/19 10:33:00;;;;;;;4.40;3.40;;;;;;;4.04;100.00;99507.28;5105736;28;20668;-63
2021/12/19 10:35:30;;;;;;;5.90;4.00;;;;;;;4.11;100.00;99502.78;5112039;28;20217;-64
2021/12/19 10:37:57;;;;;;;4.10;3.20;;;;;;;4.18;100.00;99494.78;5111970;28;20481;-64
2021/12/19 10:40:25;;;;;;;3.60;3.07;;;;;;;4.16;100.00;99493.94;5102731;28;20237;-63
2021/12/19 10:42:57;;;;;;;4.50;3.40;;;;;;;4.18;100.00;99494.78;5110156;28;20792;-63
2021/12/19 10:45:33;;;;;;;3.60;2.90;;;;;;;4.07;100.00;99486.31;5112221;28;20642;-63
2021/12/19 10:48:10;;;;;;;5.00;3.47;;;;;;;4.11;100.00;99481.88;5112159;28;20236;-63
2021/12/19 10:50:46;;;;;;;5.07;3.87;;;;;;;4.07;100.00;99473.22;5105539;28;20214;-63
2021/12/19 10:53:15;;;;;;;4.73;3.60;;;;;;;4.07;100.00;99472.34;5112160;28;20213;-63
2021/12/19 10:55:43;;;;;;;4.37;3.43;;;;;;;4.11;100.00;99467.03;5111868;28;20738;-63
2021/12/19 10:58:30;;;;;;;5.03;4.00;;;;;;;4.14;100.00;99464.34;5111865;28;20217;-63
2021/12/19 11:01:10;;;;;;;6.87;5.27;;;;;;;4.14;100.00;99464.34;5112057;28;20245;-64
2021/12/19 11:03:40;;;;;;;7.67;6.90;;;;;;;4.13;100.00;99448.66;5111841;28;20298;-63
2021/12/19 11:06:22;;;;;;;5.37;4.40;;;;;;;4.11;100.00;99442.63;5111743;28;20219;-63
2021/12/19 11:08:49;;;;;;;8.37;6.77;;;;;;;4.04;100.00;99447.13;5105096;28;20209;-63
2021/12/19 11:11:46;;;;;;;4.57;3.90;;;;;;;3.99;100.00;99440.28;5109946;28;20218;-63
2021/12/19 11:14:15;;;;;;;4.17;3.30;;;;;;;3.99;100.00;99433.31;5102888;28;20254;-63
2021/12/19 11:16:44;;;;;;;3.70;2.83;;;;;;;4.01;100.00;99431.50;5110154;28;20210;-63
2021/12/19 11:19:10;;;;;;;3.73;3.30;;;;;;;4.03;100.00;99434.94;5111844;28;20235;-63
2021/12/19 11:21:38;;;;;;;3.23;2.93;;;;;;;3.98;100.00;99439.41;5111454;28;20687;-62
2021/12/19 11:24:06;;;;;;;4.53;3.10;;;;;;;3.99;100.00;99430.69;5111925;28;20218;-63
2021/12/19 11:26:33;;;;;;;5.87;3.23;;;;;;;3.97;100.00;99422.00;5111617;28;20218;-63
2021/12/19 11:29:01;;;;;;;3.87;3.33;;;;;;;3.97;100.00;99414.16;5111915;28;20553;-63
2021/12/19 11:31:31;;;;;;;4.30;3.43;;;;;;;4.01;100.00;99404.47;5111622;28;20587;-63
2021/12/19 11:34:12;;;;;;;4.67;3.80;;;;;;;3.94;100.00;99403.78;5111866;28;20586;-63
2021/12/19 11:36:42;;;;;;;5.63;4.07;;;;;;;3.98;100.00;99410.63;5093505;28;20222;-62
2021/12/19 11:39:10;;;;;;;4.17;3.47;;;;;;;3.86;100.00;99405.69;5114924;28;20253;-63
2021/12/19 11:41:39;;;;;;;4.50;3.80;;;;;;;3.92;100.00;99397.69;5115582;28;20366;-63
2021/12/19 11:44:06;;;;;;;5.17;4.23;;;;;;;3.96;100.00;99401.97;5115172;28;20221;-63
2021/12/19 11:46:49;;;;;;;4.93;4.40;;;;;;;3.93;100.00;99388.97;5115450;27;20238;-63
2021/12/19 11:49:22;;;;;;;5.40;4.10;;;;;;;3.94;100.00;99388.09;5105960;28;20215;-64
2021/12/19 11:51:49;;;;;;;6.83;6.03;;;;;;;3.99;100.00;99388.84;5115694;28;20256;-64
2021/12/19 11:54:18;;;;;;;8.77;6.00;;;;;;;3.98;100.00;99386.25;5115371;28;20206;-64
2021/12/19 11:57:06;;;;;;;4.57;3.97;;;;;;;4.01;100.00;99376.56;5115315;28;20232;-63
2021/12/19 11:59:33;;;;;;;11.53;8.67;;;;;;;3.97;100.00;99367.06;5115178;28;20311;-63
2021/12/19 12:02:21;;;;;;;10.70;8.40;;;;;;;3.97;100.00;99361.84;5114100;28;20574;-63
2021/12/19 12:05:20;;;;;;;6.67;5.37;;;;;;;3.93;100.00;99357.59;5114989;28;20217;-63
2021/12/19 12:08:13;;;;;;;6.60;4.90;;;;;;;3.99;100.00;99351.34;5111854;28;20211;-63
2021/12/19 12:11:09;;;;;;;14.80;8.13;;;;;;;3.98;100.00;99352.25;5106788;28;20317;-63
2021/12/19 12:13:38;;;;;;;6.80;5.77;;;;;;;3.99;100.00;99344.38;5096230;28;20222;-63
2021/12/19 12:16:35;;;;;;;31.97;21.20;;;;;;;4.05;100.00;99338.13;5111416;28;20289;-63
2021/12/19 12:19:04;;;;;;;49.87;31.40;;;;;;;4.07;100.00;99326.72;5079123;28;20562;-63
2021/12/19 12:21:39;;;;;;;39.07;23.80;;;;;;;4.06;100.00;99325.00;5066692;28;20226;-63
2021/12/19 12:24:08;;;;;;;20.50;13.93;;;;;;;4.09;100.00;99317.06;5048498;28;20221;-63